TNCM METAR and TAF | Updated Today

TNCM METAR

Princess Juliana International Airport

Observation time: 45 min. ago

TNCM 032100Z 06009KT 9999 FEW018 28/23 Q1014 NOSIG

Need help? Read our tutorial on how to read METARs or read the parsed version below.

Princess Juliana International Airport (TNCM) METAR

  • Weather conditions on Fri, 03 Dec 2021 21:00:00 +0000 (45 min. ago):
  • Present conditions: Dry
  • Clouds: A few at 549 meters
  • Visibility: Greater than 10 km
  • Wind: 60 degrees at 9 knots
  • Temperature: 28 celsius
  • Dew point: 23 celsius
  • Pressure: 1014 millibars
  • Remarks: None


Useful to know...

TNCM TAF

Princess Juliana International Airport

TNCM 031720Z 0318/0418 08011KT P6SM FEW018 SCT020
Observation time: 4:25 hr. ago
Need help? Read our tutorial on how to read TAFs or read the parsed version below.

Parsed version of TAF for Princess Juliana International Airport (TNCM)

  • From 03 December at 18:00 UTC, to day 04 of the month at 18:00 UTC
  • Clouds: A few at 549 meters; scattered at 610 meters
  • Wind: 80 degrees at 11